ZGGG

Guangzhou Baiyun International Airport

Guangzhou, China
TAF ZGGG 221502Z 2218/2318 12003MPS 8000 SCT040 TX35/2306Z TN26/2222Z TEMPO 2220/2224 3500 SHRA FEW030CB BKN033 TEMPO 2303/2309 2500 TSRA SCT011 SCT030CB BKN033
Issued Valid From Valid To
Jul-22 @ 15:02 UTC
(5 hours ago)
Jul-22 @ 18:00 UTC
(2 hours ago)
Jul-23 @ 18:00 UTC
(in 22 hours)
Jul-22 @ 18:00 to Jul-23 @ 18:00
TAF ZGGG 221502Z 2218/2318 12003MPS 8000 SCT040 TX35/2306Z TN26/2222Z
Wind Visibility Clouds
120° at 6 knots 7,998 meters
  • Scattered at 4,000' AGL
Temporary Jul-22 @ 20:00 to Jul-23 @ 00:00
TEMPO 2220/2224 3500 SHRA FEW030CB BKN033
Visibility Clouds Conditions
3,492 meters
  • Few at 3,000' AGL
  • Broken at 3,300' AGL
  • Rain
Temporary Jul-23 @ 03:00 to Jul-23 @ 09:00
TEMPO 2303/2309 2500 TSRA SCT011 SCT030CB BKN033
Visibility Clouds Conditions
2,494 meters
  • Scattered at 1,100' AGL
  • Scattered at 3,000' AGL
  • Broken at 3,300' AGL
  • Thunderstorm
  • Rain
TAF ZGGG 221502Z 2218/2318 12003MPS 8000 SCT040 TX35/2306Z TN26/2222Z TEMPO 2220/2224 3500 SHRA FEW030CB BKN033 TEMPO 2303/2309 2500 TSRA SCT011 SCT030CB BKN033
Issued Jul-22 @ 15:02 UTC
(5 hours ago)
Valid From Jul-22 @ 18:00 UTC
(2 hours ago)
Valid To Jul-23 @ 18:00 UTC
(in 22 hours)
Jul-22 @ 18:00 - Jul-23 @ 18:00
Wind Visibility
120° at 6 knots 7,998 meters
Clouds
  • Scattered at 4,000' AGL
Temporary Jul-22 @ 20:00 - Jul-23 @ 00:00
Clouds
  • Few at 3,000' AGL
  • Broken at 3,300' AGL
Conditions
  • Rain
Temporary Jul-23 @ 03:00 - Jul-23 @ 09:00
Clouds
  • Scattered at 1,100' AGL
  • Scattered at 3,000' AGL
  • Broken at 3,300' AGL
Conditions
  • Thunderstorm
  • Rain